createdAt,value
2023-03-05T00:00:33.413Z,100152.63
2023-03-05T00:02:35.485Z,100151.16
2023-03-05T00:04:37.522Z,100148.56
2023-03-05T00:06:40.561Z,100142.28
2023-03-05T00:08:42.405Z,100138.66
2023-03-05T00:10:44.314Z,100142.94
2023-03-05T00:12:46.259Z,100140.09
2023-03-05T00:14:48.216Z,100134.25
2023-03-05T00:16:52.231Z,100132.56
2023-03-05T00:18:57.345Z,100131.03
2023-03-05T00:20:59.238Z,100131.19
2023-03-05T00:23:01.148Z,100129.06
2023-03-05T00:25:04.391Z,100125.84
2023-03-05T00:27:06.393Z,100122.63
2023-03-05T00:29:09.411Z,100126.66
2023-03-05T00:31:14.456Z,100125.97
2023-03-05T00:33:16.512Z,100119.25
2023-03-05T00:35:18.496Z,100116.50
2023-03-05T00:37:20.361Z,100116.78
2023-03-05T00:39:23.286Z,100111.38
2023-03-05T00:41:25.660Z,100108.44
2023-03-05T00:43:28.224Z,100108.34
2023-03-05T00:45:30.450Z,100110.97
2023-03-05T00:47:32.708Z,100105.06
2023-03-05T00:49:34.759Z,100095.75
2023-03-05T00:51:36.835Z,100095.59
2023-03-05T00:53:38.842Z,100091.19
2023-03-05T00:55:40.746Z,100093.97
2023-03-05T00:57:42.782Z,100097.84
2023-03-05T00:59:45.791Z,100092.38
2023-03-05T01:01:47.750Z,100089.59
2023-03-05T01:03:49.755Z,100095.00
2023-03-05T01:05:51.733Z,100089.13
2023-03-05T01:07:55.521Z,100085.63
2023-03-05T01:09:57.624Z,100079.28
2023-03-05T01:12:00.780Z,100083.19
2023-03-05T01:14:03.817Z,100073.41
2023-03-05T01:16:06.242Z,100076.84
2023-03-05T01:18:08.195Z,100075.53
2023-03-05T01:20:13.217Z,100074.34
2023-03-05T01:22:15.158Z,100070.59
2023-03-05T01:24:17.120Z,100070.25
2023-03-05T01:26:19.168Z,100065.97
2023-03-05T01:28:21.102Z,100061.94
2023-03-05T01:30:23.573Z,100058.56
2023-03-05T01:32:25.658Z,100067.66
2023-03-05T01:34:27.617Z,100069.84
2023-03-05T01:36:30.433Z,100070.53
2023-03-05T01:38:32.505Z,100063.31
2023-03-05T01:40:34.667Z,100063.19
2023-03-05T01:42:36.721Z,100062.53
2023-03-05T01:44:38.700Z,100058.47
2023-03-05T01:46:41.817Z,100058.69
2023-03-05T01:48:49.781Z,100056.84
2023-03-05T01:50:52.205Z,100060.31
2023-03-05T01:53:01.367Z,100059.03
2023-03-05T01:55:06.566Z,100056.69
2023-03-05T01:57:13.301Z,100045.00
2023-03-05T01:59:16.803Z,100047.38
2023-03-05T02:01:19.674Z,100049.06
2023-03-05T02:03:23.933Z,100045.84
2023-03-05T02:05:29.116Z,100045.78
2023-03-05T02:07:32.088Z,100045.66
2023-03-05T02:09:34.108Z,100048.16
2023-03-05T02:11:36.816Z,100043.41
2023-03-05T02:13:40.902Z,100042.91
2023-03-05T02:15:43.911Z,100046.06
2023-03-05T02:17:46.427Z,100042.09
2023-03-05T02:19:56.573Z,100042.09
2023-03-05T02:21:58.517Z,100045.06
2023-03-05T02:24:00.402Z,100036.09
2023-03-05T02:26:07.170Z,100033.44
2023-03-05T02:28:33.173Z,100033.13
2023-03-05T02:30:37.236Z,100026.97
2023-03-05T02:32:39.166Z,100021.91
2023-03-05T02:34:41.411Z,100022.78
2023-03-05T02:36:44.381Z,100023.63
2023-03-05T02:38:46.624Z,100015.25
2023-03-05T02:40:48.586Z,100018.56
2023-03-05T02:42:50.637Z,100015.91
2023-03-05T02:44:53.610Z,100012.31
2023-03-05T02:46:56.537Z,100014.63
2023-03-05T02:48:58.506Z,100013.59
2023-03-05T02:51:01.863Z,100015.97
2023-03-05T02:53:03.762Z,100017.88
2023-03-05T02:55:06.465Z,100017.78
2023-03-05T02:57:08.341Z,100016.34
2023-03-05T02:59:10.263Z,100011.00
2023-03-05T03:01:20.154Z,100015.50
2023-03-05T03:03:22.158Z,100008.41
2023-03-05T03:05:24.659Z,100004.88
2023-03-05T03:07:26.559Z,100013.59
2023-03-05T03:09:29.479Z,100004.16
2023-03-05T03:11:31.480Z,100003.06
2023-03-05T03:13:33.352Z,100003.19
2023-03-05T03:15:35.341Z,99999.56
2023-03-05T03:17:38.156Z,100009.53
2023-03-05T03:19:41.276Z,100005.66
2023-03-05T03:21:43.195Z,99998.72
2023-03-05T03:23:45.669Z,99991.72
2023-03-05T03:25:47.498Z,99993.75
2023-03-05T03:27:49.677Z,100002.91
2023-03-05T03:29:54.812Z,99997.88
2023-03-05T03:31:56.968Z,100005.53
2023-03-05T03:33:58.927Z,99993.34
2023-03-05T03:36:01.224Z,99991.06
2023-03-05T03:38:03.459Z,99992.06
2023-03-05T03:40:06.541Z,99982.94
2023-03-05T03:42:08.396Z,99982.94
2023-03-05T03:44:13.778Z,99984.41
2023-03-05T03:46:15.766Z,99978.59
2023-03-05T03:48:18.184Z,99968.56
2023-03-05T03:50:25.275Z,99970.38
2023-03-05T03:52:27.329Z,99971.94
2023-03-05T03:54:30.442Z,99970.19
2023-03-05T03:56:32.345Z,99960.88
2023-03-05T03:58:34.293Z,99962.03
2023-03-05T04:00:36.279Z,99960.34
2023-03-05T04:02:40.780Z,99963.06
2023-03-05T04:04:42.694Z,99957.56
2023-03-05T04:06:44.923Z,99953.94
2023-03-05T04:08:46.972Z,99956.22
2023-03-05T04:10:48.890Z,99956.72
2023-03-05T04:12:50.798Z,99951.94
2023-03-05T04:14:53.024Z,99958.47
2023-03-05T04:16:56.108Z,99947.03
2023-03-05T04:18:58.104Z,99948.25
2023-03-05T04:20:59.937Z,99936.59
2023-03-05T04:23:01.814Z,99946.81
2023-03-05T04:25:06.763Z,99948.38
2023-03-05T04:27:09.283Z,99943.19
2023-03-05T04:29:11.231Z,99937.50
2023-03-05T04:31:13.296Z,99932.38
2023-03-05T04:33:15.800Z,99940.72
2023-03-05T04:35:18.086Z,99935.94
2023-03-05T04:37:19.995Z,99931.84
2023-03-05T04:39:22.024Z,99924.38
2023-03-05T04:41:23.868Z,99934.25
2023-03-05T04:43:25.717Z,99929.41
2023-03-05T04:45:27.724Z,99921.06
2023-03-05T04:47:29.664Z,99925.53
2023-03-05T04:49:31.553Z,99914.53
2023-03-05T04:51:33.486Z,99913.69
2023-03-05T04:53:36.262Z,99907.97
2023-03-05T04:55:38.245Z,99914.44
2023-03-05T04:57:43.599Z,99905.97
2023-03-05T04:59:54.388Z,99906.09
2023-03-05T05:01:56.725Z,99904.53
2023-03-05T05:03:58.746Z,99901.91
2023-03-05T05:06:01.960Z,99904.53
2023-03-05T05:08:15.986Z,99901.03
2023-03-05T05:10:18.023Z,99898.63
2023-03-05T05:12:22.355Z,99900.19
2023-03-05T05:14:24.364Z,99897.50
2023-03-05T05:16:27.286Z,99897.34
2023-03-05T05:18:29.272Z,99898.63
2023-03-05T05:20:31.234Z,99897.09
2023-03-05T05:22:34.262Z,99904.53
2023-03-05T05:24:36.214Z,99900.19
2023-03-05T05:26:38.359Z,99893.47
2023-03-05T05:28:43.332Z,99904.72
2023-03-05T05:30:45.178Z,99892.09
2023-03-05T05:32:47.209Z,99900.63
2023-03-05T05:34:57.970Z,99897.00
2023-03-05T05:36:59.892Z,99895.44
2023-03-05T05:39:01.745Z,99894.56
2023-03-05T05:41:09.086Z,99899.19
2023-03-05T05:43:12.253Z,99895.03
2023-03-05T05:45:14.357Z,99894.31
2023-03-05T05:47:17.365Z,99892.00
2023-03-05T05:49:20.240Z,99898.53
2023-03-05T05:51:24.238Z,99899.31
2023-03-05T05:53:26.741Z,99900.09
2023-03-05T05:55:29.766Z,99895.94
2023-03-05T05:57:31.597Z,99898.84
2023-03-05T05:59:33.760Z,99899.03
2023-03-05T06:01:35.843Z,99892.41
2023-03-05T06:03:37.775Z,99896.88
2023-03-05T06:05:41.987Z,99892.03
2023-03-05T06:07:43.950Z,99889.84
2023-03-05T06:09:46.895Z,99890.28
2023-03-05T06:11:48.891Z,99882.53
2023-03-05T06:13:51.325Z,99888.19
2023-03-05T06:16:01.089Z,99887.13
2023-03-05T06:18:03.098Z,99882.06
2023-03-05T06:20:07.193Z,99881.34
2023-03-05T06:22:09.107Z,99878.53
2023-03-05T06:24:11.472Z,99864.81
2023-03-05T06:26:15.820Z,99863.50
2023-03-05T06:28:18.015Z,99857.69
2023-03-05T06:30:19.916Z,99870.72
2023-03-05T06:32:21.834Z,99860.94
2023-03-05T06:34:23.919Z,99862.28
2023-03-05T06:36:26.251Z,99863.03
2023-03-05T06:38:28.958Z,99854.59
2023-03-05T06:40:30.946Z,99840.53
2023-03-05T06:42:34.305Z,99837.97
2023-03-05T06:44:40.292Z,99833.56
2023-03-05T06:46:42.499Z,99838.03
2023-03-05T06:48:44.542Z,99826.63
2023-03-05T06:50:46.722Z,99829.31
2023-03-05T06:52:51.760Z,99826.69
2023-03-05T06:54:56.012Z,99812.13
2023-03-05T06:56:58.272Z,99799.50
2023-03-05T06:59:00.188Z,99804.69
2023-03-05T07:01:04.728Z,99797.81
2023-03-05T07:03:06.548Z,99791.09
2023-03-05T07:05:08.939Z,99782.75
2023-03-05T07:07:10.823Z,99771.91
2023-03-05T07:09:15.634Z,99779.47
2023-03-05T07:11:20.902Z,99794.69
2023-03-05T07:13:22.815Z,99814.97
2023-03-05T07:15:25.804Z,99826.75
2023-03-05T07:17:30.287Z,99825.84
2023-03-05T07:19:32.192Z,99818.13
2023-03-05T07:21:36.060Z,99808.72
2023-03-05T07:23:39.538Z,99799.28
2023-03-05T07:25:41.486Z,99799.28
2023-03-05T07:27:43.423Z,99804.22
2023-03-05T07:29:45.328Z,99795.72
2023-03-05T07:31:47.268Z,99797.31
2023-03-05T07:33:50.633Z,99799.88
2023-03-05T07:35:52.666Z,99803.19
2023-03-05T07:37:56.043Z,99804.81
2023-03-05T07:39:58.332Z,99797.25
2023-03-05T07:42:00.403Z,99804.06
2023-03-05T07:44:02.504Z,99801.47
2023-03-05T07:46:06.739Z,99806.56
2023-03-05T07:48:12.811Z,99803.28
2023-03-05T07:50:14.676Z,99794.75
2023-03-05T07:52:17.077Z,99805.72
2023-03-05T07:54:19.093Z,99797.41
2023-03-05T07:56:26.278Z,99799.13
2023-03-05T07:58:28.208Z,99802.63
2023-03-05T08:00:33.928Z,99794.16
2023-03-05T08:02:35.895Z,99799.19
2023-03-05T08:04:38.692Z,99800.09
2023-03-05T08:06:42.317Z,99793.38
2023-03-05T08:08:44.400Z,99799.41
2023-03-05T08:10:47.469Z,99798.50
2023-03-05T08:12:49.337Z,99806.34
2023-03-05T08:14:51.840Z,99796.16
2023-03-05T08:16:53.811Z,99805.56
2023-03-05T08:18:57.530Z,99800.41
2023-03-05T08:20:59.790Z,99799.66
2023-03-05T08:23:03.452Z,99808.06
2023-03-05T08:25:06.615Z,99799.66
2023-03-05T08:27:08.590Z,99801.47
2023-03-05T08:29:11.376Z,99802.28
2023-03-05T08:31:15.370Z,99798.00
2023-03-05T08:33:17.942Z,99798.03
2023-03-05T08:35:19.938Z,99802.16
2023-03-05T08:37:21.925Z,99790.34
2023-03-05T08:39:23.911Z,99799.78
2023-03-05T08:41:25.847Z,99794.69
2023-03-05T08:43:27.985Z,99794.72
2023-03-05T08:45:30.077Z,99797.97
2023-03-05T08:47:32.060Z,99793.03
2023-03-05T08:49:34.078Z,99792.16
2023-03-05T08:51:38.090Z,99791.25
2023-03-05T08:53:40.639Z,99787.84
2023-03-05T08:55:44.185Z,99789.63
2023-03-05T08:57:46.307Z,99787.88
2023-03-05T08:59:50.665Z,99786.09
2023-03-05T09:01:52.604Z,99787.09
2023-03-05T09:03:55.648Z,99779.53
2023-03-05T09:06:05.835Z,99782.06
2023-03-05T09:08:07.835Z,99783.78
2023-03-05T09:10:11.938Z,99781.22
2023-03-05T09:12:16.103Z,99786.38
2023-03-05T09:14:18.448Z,99785.50
2023-03-05T09:16:21.889Z,99784.69
2023-03-05T09:18:24.626Z,99791.53
2023-03-05T09:20:27.850Z,99781.34
2023-03-05T09:22:30.326Z,99783.00
2023-03-05T09:24:33.360Z,99782.13
2023-03-05T09:26:35.301Z,99780.41
2023-03-05T09:28:37.315Z,99785.56
2023-03-05T09:30:39.309Z,99791.53
2023-03-05T09:32:42.333Z,99786.41
2023-03-05T09:34:44.301Z,99788.16
2023-03-05T09:36:48.926Z,99783.88
2023-03-05T09:38:51.253Z,99786.44
2023-03-05T09:41:30.513Z,99777.97
2023-03-05T09:43:49.482Z,99782.19
2023-03-05T09:46:23.560Z,99788.06
2023-03-05T09:48:51.801Z,99772.06
2023-03-05T09:51:02.355Z,99783.88
2023-03-05T09:53:28.672Z,99779.66
2023-03-05T09:55:40.620Z,99779.59
2023-03-05T09:57:51.808Z,99777.88
2023-03-05T10:00:08.884Z,99776.22
2023-03-05T10:02:21.786Z,99769.44
2023-03-05T10:04:36.426Z,99774.66
2023-03-05T10:06:57.792Z,99774.56
2023-03-05T10:09:11.763Z,99772.03
2023-03-05T10:11:27.164Z,99779.56
2023-03-05T10:13:41.560Z,99775.34
2023-03-05T10:15:53.194Z,99773.69
2023-03-05T10:18:00.831Z,99761.00
2023-03-05T10:20:20.935Z,99769.47
2023-03-05T10:22:33.457Z,99763.50
2023-03-05T10:24:44.310Z,99765.13
2023-03-05T10:26:46.276Z,99764.34
2023-03-05T10:29:03.646Z,99759.31
2023-03-05T10:31:13.175Z,99760.97
2023-03-05T10:33:35.681Z,99748.25
2023-03-05T10:35:51.285Z,99749.13
2023-03-05T10:38:15.711Z,99748.25
2023-03-05T10:40:23.686Z,99744.03
2023-03-05T10:42:41.665Z,99733.91
2023-03-05T10:44:55.249Z,99741.47
2023-03-05T10:47:00.171Z,99749.00
2023-03-05T10:49:15.868Z,99736.28
2023-03-05T10:51:35.808Z,99737.94
2023-03-05T10:53:48.175Z,99738.88
2023-03-05T10:55:52.015Z,99738.75
2023-03-05T10:57:54.179Z,99735.31
2023-03-05T11:00:08.663Z,99735.28
2023-03-05T11:02:10.716Z,99740.38
2023-03-05T11:04:33.082Z,99730.16
2023-03-05T11:06:35.679Z,99733.38
2023-03-05T11:08:38.236Z,99729.09
2023-03-05T11:10:40.460Z,99737.44
2023-03-05T11:12:43.108Z,99734.03
2023-03-05T11:15:07.719Z,99731.53
2023-03-05T11:17:30.014Z,99722.06
2023-03-05T11:19:34.944Z,99721.22
2023-03-05T11:21:37.186Z,99722.91
2023-03-05T11:23:39.471Z,99714.38
2023-03-05T11:25:57.398Z,99718.66
2023-03-05T11:28:01.857Z,99721.16
2023-03-05T11:30:05.446Z,99710.19
2023-03-05T11:32:22.931Z,99702.56
2023-03-05T11:34:36.014Z,99707.78
2023-03-05T11:36:42.653Z,99704.28
2023-03-05T11:38:50.486Z,99711.84
2023-03-05T11:40:57.015Z,99705.06
2023-03-05T11:43:02.335Z,99694.81
2023-03-05T11:45:05.679Z,99699.00
2023-03-05T11:47:27.138Z,99690.59
2023-03-05T11:49:30.443Z,99693.16
2023-03-05T11:52:02.470Z,99683.03
2023-03-05T11:54:08.089Z,99686.34
2023-03-05T11:56:21.884Z,99688.78
2023-03-05T11:58:39.340Z,99682.06
2023-03-05T12:00:45.775Z,99677.88
2023-03-05T12:02:54.152Z,99676.13
2023-03-05T12:05:03.438Z,99675.25
2023-03-05T12:07:06.071Z,99678.66
2023-03-05T12:09:42.316Z,99671.88
2023-03-05T12:11:46.117Z,99670.94
2023-03-05T12:14:20.356Z,99671.78
2023-03-05T12:16:45.256Z,99667.56
2023-03-05T12:18:57.044Z,99665.94
2023-03-05T12:21:06.818Z,99665.84
2023-03-05T12:23:19.217Z,99659.09
2023-03-05T12:25:35.692Z,99665.03
2023-03-05T12:27:40.325Z,99668.34
2023-03-05T12:29:46.700Z,99665.84
2023-03-05T12:31:49.376Z,99664.97
2023-03-05T12:33:51.663Z,99669.19
2023-03-05T12:35:53.799Z,99657.34
2023-03-05T12:37:57.836Z,99658.25
2023-03-05T12:40:19.128Z,99665.00
2023-03-05T12:42:30.327Z,99652.25
2023-03-05T12:44:35.429Z,99654.78
2023-03-05T12:46:43.449Z,99654.78
2023-03-05T12:48:47.678Z,99652.19
2023-03-05T12:50:53.020Z,99647.19
2023-03-05T12:53:16.172Z,99640.41
2023-03-05T12:55:34.348Z,99641.31
2023-03-05T12:57:37.810Z,99642.09
2023-03-05T12:59:49.551Z,99634.44
2023-03-05T13:02:01.570Z,99633.59
2023-03-05T13:04:17.665Z,99635.31
2023-03-05T13:06:34.172Z,99630.22
2023-03-05T13:08:38.558Z,99628.63
2023-03-05T13:10:40.796Z,99625.09
2023-03-05T13:12:53.381Z,99631.19
2023-03-05T13:15:14.669Z,99631.34
2023-03-05T13:17:53.817Z,99629.66
2023-03-05T13:20:02.224Z,99628.81
2023-03-05T13:22:12.252Z,99626.13
2023-03-05T13:24:20.346Z,99632.06
2023-03-05T13:26:22.719Z,99629.59
2023-03-05T13:28:25.126Z,99627.13
2023-03-05T13:30:34.636Z,99624.59
2023-03-05T13:32:37.757Z,99622.97
2023-03-05T13:34:48.194Z,99624.63
2023-03-05T13:37:04.498Z,99623.72
2023-03-05T13:39:08.120Z,99624.59
2023-03-05T13:41:17.265Z,99625.47
2023-03-05T13:43:21.345Z,99620.09
2023-03-05T13:45:26.689Z,99621.56
2023-03-05T13:47:32.748Z,99615.75
2023-03-05T13:49:35.222Z,99607.06
2023-03-05T13:51:53.221Z,99613.31
2023-03-05T13:53:55.995Z,99605.78
2023-03-05T13:56:03.853Z,99610.19
2023-03-05T13:58:06.548Z,99616.06
2023-03-05T14:00:31.049Z,99604.22
2023-03-05T14:02:34.751Z,99606.78
2023-03-05T14:04:42.026Z,99607.66
2023-03-05T14:06:59.177Z,99602.66
2023-03-05T14:09:17.909Z,99602.59
2023-03-05T14:11:23.851Z,99601.69
2023-03-05T14:13:32.661Z,99595.91
2023-03-05T14:15:36.964Z,99589.03
2023-03-05T14:17:45.530Z,99589.81
2023-03-05T14:19:48.664Z,99592.44
2023-03-05T14:21:51.935Z,99592.44
2023-03-05T14:23:55.497Z,99593.34
2023-03-05T14:26:16.979Z,99586.56
2023-03-05T14:28:21.985Z,99588.28
2023-03-05T14:30:26.561Z,99585.69
2023-03-05T14:32:38.835Z,99584.00
2023-03-05T14:34:44.745Z,99585.69
2023-03-05T14:36:55.682Z,99580.63
2023-03-05T14:38:59.131Z,99584.00
2023-03-05T14:41:21.119Z,99583.13
2023-03-05T14:43:24.874Z,99588.88
2023-03-05T14:45:32.547Z,99580.44
2023-03-05T14:47:39.098Z,99585.50
2023-03-05T14:49:42.084Z,99583.75
2023-03-05T14:51:46.607Z,99580.38
2023-03-05T14:53:52.966Z,99574.47
2023-03-05T14:55:57.698Z,99570.25
2023-03-05T14:58:21.054Z,99569.47
2023-03-05T15:00:30.147Z,99570.22
2023-03-05T15:02:32.820Z,99568.53
2023-03-05T15:04:35.933Z,99571.91
2023-03-05T15:06:42.691Z,99571.03
2023-03-05T15:08:46.797Z,99568.56
2023-03-05T15:10:51.433Z,99571.00
2023-03-05T15:12:55.392Z,99575.41
2023-03-05T15:14:58.290Z,99571.03
2023-03-05T15:17:01.048Z,99567.66
2023-03-05T15:19:05.280Z,99564.28
2023-03-05T15:21:19.924Z,99563.50
2023-03-05T15:23:25.365Z,99562.56
2023-03-05T15:25:31.223Z,99565.16
2023-03-05T15:27:37.769Z,99566.03
2023-03-05T15:29:43.809Z,99571.00
2023-03-05T15:31:49.026Z,99570.25
2023-03-05T15:33:52.136Z,99572.69
2023-03-05T15:35:56.706Z,99574.44
2023-03-05T15:38:00.914Z,99573.50
2023-03-05T15:40:04.336Z,99580.19
2023-03-05T15:42:08.640Z,99575.94
2023-03-05T15:44:11.742Z,99573.41
2023-03-05T15:46:14.173Z,99573.44
2023-03-05T15:48:17.400Z,99576.72
2023-03-05T15:50:23.413Z,99573.34
2023-03-05T15:52:32.245Z,99580.94
2023-03-05T15:54:37.068Z,99575.06
2023-03-05T15:56:42.355Z,99582.63
2023-03-05T15:58:50.441Z,99585.91
2023-03-05T16:01:04.373Z,99589.38
2023-03-05T16:03:08.372Z,99591.94
2023-03-05T16:05:12.601Z,99586.81
2023-03-05T16:07:16.685Z,99585.19
2023-03-05T16:09:25.708Z,99585.09
2023-03-05T16:11:30.736Z,99588.50
2023-03-05T16:13:36.222Z,99584.19
2023-03-05T16:15:46.248Z,99582.41
2023-03-05T16:17:54.419Z,99585.91
2023-03-05T16:20:03.682Z,99583.28
2023-03-05T16:22:08.619Z,99580.66
2023-03-05T16:24:15.939Z,99578.13
2023-03-05T16:26:25.571Z,99582.25
2023-03-05T16:28:32.927Z,99589.84
2023-03-05T16:30:39.079Z,99594.91
2023-03-05T16:32:42.881Z,99595.66
2023-03-05T16:34:49.267Z,99604.03
2023-03-05T16:36:57.032Z,99600.75
2023-03-05T16:39:00.772Z,99596.44
2023-03-05T16:41:08.828Z,99602.41
2023-03-05T16:43:12.104Z,99606.66
2023-03-05T16:45:15.892Z,99603.13
2023-03-05T16:47:18.834Z,99608.16
2023-03-05T16:49:23.882Z,99612.41
2023-03-05T16:51:28.562Z,99611.53
2023-03-05T16:53:31.032Z,99615.75
2023-03-05T16:55:34.134Z,99620.03
2023-03-05T16:57:39.861Z,99620.88
2023-03-05T16:59:44.441Z,99620.03
2023-03-05T17:01:47.462Z,99615.72
2023-03-05T17:03:50.707Z,99623.38
2023-03-05T17:05:54.988Z,99624.16
2023-03-05T17:07:58.724Z,99626.72
2023-03-05T17:10:04.385Z,99620.69
2023-03-05T17:12:07.872Z,99617.22
2023-03-05T17:14:11.956Z,99617.31
2023-03-05T17:16:19.088Z,99628.16
2023-03-05T17:18:22.167Z,99628.13
2023-03-05T17:20:26.266Z,99627.25
2023-03-05T17:22:29.441Z,99630.63
2023-03-05T17:24:33.719Z,99621.06
2023-03-05T17:26:37.189Z,99620.13
2023-03-05T17:28:40.895Z,99620.28
2023-03-05T17:30:43.926Z,99630.47
2023-03-05T17:32:49.029Z,99621.19
2023-03-05T17:34:58.155Z,99628.75
2023-03-05T17:37:05.593Z,99628.78
2023-03-05T17:39:09.969Z,99622.16
2023-03-05T17:41:14.557Z,99622.16
2023-03-05T17:43:20.189Z,99621.81
2023-03-05T17:45:23.990Z,99622.16
2023-03-05T17:47:27.202Z,99616.72
2023-03-05T17:49:31.367Z,99618.50
2023-03-05T17:51:34.582Z,99618.38
2023-03-05T17:53:49.427Z,99620.88
2023-03-05T17:55:53.889Z,99616.50
2023-03-05T17:57:57.173Z,99622.41
2023-03-05T18:00:00.384Z,99618.94
2023-03-05T18:02:03.173Z,99620.13
2023-03-05T18:04:06.527Z,99621.59
2023-03-05T18:06:11.560Z,99626.03
2023-03-05T18:08:18.456Z,99618.47
2023-03-05T18:10:23.283Z,99611.75
2023-03-05T18:12:28.352Z,99619.13
2023-03-05T18:14:35.896Z,99622.47
2023-03-05T18:16:39.259Z,99617.75
2023-03-05T18:18:42.409Z,99615.94
2023-03-05T18:20:46.180Z,99622.41
2023-03-05T18:22:49.267Z,99619.13
2023-03-05T18:24:53.286Z,99625.56
2023-03-05T18:26:56.488Z,99616.13
2023-03-05T18:29:00.427Z,99619.84
2023-03-05T18:31:08.455Z,99622.06
2023-03-05T18:33:23.815Z,99623.38
2023-03-05T18:35:27.929Z,99626.63
2023-03-05T18:37:34.195Z,99623.28
2023-03-05T18:39:36.682Z,99620.69
2023-03-05T18:41:42.324Z,99620.50
2023-03-05T18:43:45.358Z,99613.56
2023-03-05T18:45:58.371Z,99618.81
2023-03-05T18:48:03.857Z,99623.88
2023-03-05T18:50:08.376Z,99613.81
2023-03-05T18:52:13.451Z,99610.00
2023-03-05T18:54:17.702Z,99613.50
2023-03-05T18:56:20.402Z,99605.72
2023-03-05T18:58:26.438Z,99616.72
2023-03-05T19:00:32.786Z,99614.34
2023-03-05T19:02:36.836Z,99613.16
2023-03-05T19:04:42.485Z,99608.97
2023-03-05T19:06:45.610Z,99615.16
2023-03-05T19:08:57.911Z,99609.84
2023-03-05T19:11:00.985Z,99607.44
2023-03-05T19:13:29.025Z,99611.56
2023-03-05T19:15:33.518Z,99612.63
2023-03-05T19:17:36.730Z,99609.78
2023-03-05T19:19:43.548Z,99612.34
2023-03-05T19:21:54.473Z,99618.31
2023-03-05T19:23:57.920Z,99613.16
2023-03-05T19:26:03.466Z,99612.13
2023-03-05T19:28:07.518Z,99617.19
2023-03-05T19:30:19.078Z,99624.75
2023-03-05T19:32:25.689Z,99616.53
2023-03-05T19:34:35.206Z,99617.88
2023-03-05T19:36:38.299Z,99621.34
2023-03-05T19:38:41.793Z,99615.25
2023-03-05T19:40:45.292Z,99617.50
2023-03-05T19:42:50.334Z,99618.47
2023-03-05T19:44:56.886Z,99617.78
2023-03-05T19:47:01.846Z,99613.78
2023-03-05T19:49:06.404Z,99614.41
2023-03-05T19:51:15.186Z,99615.06
2023-03-05T19:53:18.372Z,99613.16
2023-03-05T19:55:21.639Z,99618.25
2023-03-05T19:57:25.497Z,99615.53
2023-03-05T19:59:31.838Z,99617.31
2023-03-05T20:01:35.664Z,99622.94
2023-03-05T20:03:39.249Z,99616.59
2023-03-05T20:05:45.012Z,99622.78
2023-03-05T20:07:49.166Z,99615.63
2023-03-05T20:09:55.222Z,99621.06
2023-03-05T20:12:02.139Z,99622.97
2023-03-05T20:14:05.697Z,99625.38
2023-03-05T20:16:24.157Z,99622.09
2023-03-05T20:18:29.506Z,99617.59
2023-03-05T20:20:31.951Z,99623.44
2023-03-05T20:22:34.555Z,99628.09
2023-03-05T20:24:38.487Z,99620.47
2023-03-05T20:26:43.394Z,99614.47
2023-03-05T20:28:48.016Z,99621.09
2023-03-05T20:31:03.176Z,99621.63
2023-03-05T20:33:06.292Z,99614.91
2023-03-05T20:35:13.889Z,99619.97
2023-03-05T20:37:17.009Z,99620.59
2023-03-05T20:39:20.039Z,99617.19
2023-03-05T20:41:22.924Z,99610.28
2023-03-05T20:43:30.959Z,99612.81
2023-03-05T20:45:35.938Z,99607.78
2023-03-05T20:47:43.139Z,99610.00
2023-03-05T20:49:46.129Z,99607.56
2023-03-05T20:51:51.127Z,99611.78
2023-03-05T20:54:03.115Z,99607.72
2023-03-05T20:56:06.303Z,99611.19
2023-03-05T20:58:10.398Z,99607.63
2023-03-05T21:00:16.110Z,99599.94
2023-03-05T21:02:21.897Z,99611.94
2023-03-05T21:04:25.808Z,99606.56
2023-03-05T21:06:30.323Z,99606.88
2023-03-05T21:08:36.062Z,99616.72
2023-03-05T21:10:41.190Z,99609.72
2023-03-05T21:12:45.668Z,99608.69
2023-03-05T21:14:49.497Z,99608.03
2023-03-05T21:16:57.354Z,99605.78
2023-03-05T21:19:08.632Z,99605.44
2023-03-05T21:21:11.539Z,99605.41
2023-03-05T21:23:19.208Z,99604.44
2023-03-05T21:25:29.441Z,99602.03
2023-03-05T21:27:32.114Z,99601.59
2023-03-05T21:29:36.982Z,99599.09
2023-03-05T21:31:40.251Z,99606.19
2023-03-05T21:33:43.488Z,99596.91
2023-03-05T21:35:46.102Z,99597.66
2023-03-05T21:37:54.528Z,99595.19
2023-03-05T21:39:56.901Z,99592.81
2023-03-05T21:42:00.235Z,99602.38
2023-03-05T21:44:04.341Z,99594.00
2023-03-05T21:46:06.849Z,99598.16
2023-03-05T21:48:10.199Z,99595.34
2023-03-05T21:50:14.974Z,99593.13
2023-03-05T21:52:22.216Z,99594.81
2023-03-05T21:54:24.689Z,99586.69
2023-03-05T21:56:28.389Z,99595.25
2023-03-05T21:58:35.820Z,99595.13
2023-03-05T22:00:37.836Z,99588.78
2023-03-05T22:02:41.481Z,99587.84
2023-03-05T22:04:43.998Z,99587.00
2023-03-05T22:06:49.769Z,99596.22
2023-03-05T22:08:51.829Z,99595.34
2023-03-05T22:10:54.900Z,99594.56
2023-03-05T22:13:10.974Z,99601.91
2023-03-05T22:15:15.657Z,99599.50
2023-03-05T22:17:17.640Z,99600.47
2023-03-05T22:19:23.990Z,99592.03
2023-03-05T22:21:27.661Z,99597.88
2023-03-05T22:23:37.128Z,99598.88
2023-03-05T22:25:39.609Z,99595.31
2023-03-05T22:27:45.867Z,99596.03
2023-03-05T22:29:48.853Z,99591.00
2023-03-05T22:31:21.078Z,99595.81
2023-03-05T22:31:34.983Z,99590.88
2023-03-05T22:31:48.916Z,99589.97
2023-03-05T22:32:02.803Z,99599.22
2023-03-05T22:32:16.708Z,99598.56
2023-03-05T22:32:43.200Z,99592.56
2023-03-05T22:32:57.087Z,99592.63
2023-03-05T22:33:11.372Z,99590.94
2023-03-05T22:33:26.004Z,99592.69
2023-03-05T22:33:40.004Z,99592.56
2023-03-05T22:33:54.422Z,99594.25
2023-03-05T22:34:08.324Z,99593.34
2023-03-05T22:34:22.396Z,99595.06
2023-03-05T22:34:37.799Z,99596.03
2023-03-05T22:34:59.458Z,99595.25
2023-03-05T22:37:12.499Z,99592.59
2023-03-05T22:39:15.482Z,99594.25
2023-03-05T22:41:21.917Z,99589.97
2023-03-05T22:43:25.876Z,99595.81
2023-03-05T22:45:28.874Z,99587.56
2023-03-05T22:47:31.551Z,99588.47
2023-03-05T22:49:33.575Z,99589.13
2023-03-05T22:51:36.678Z,99586.50
2023-03-05T22:53:40.498Z,99587.22
2023-03-05T22:55:42.864Z,99590.88
2023-03-05T22:57:45.752Z,99585.66
2023-03-05T22:59:50.041Z,99585.59
2023-03-05T23:01:52.260Z,99585.84
2023-03-05T23:04:03.604Z,99583.19
2023-03-05T23:06:05.990Z,99584.22
2023-03-05T23:08:10.260Z,99595.63
2023-03-05T23:10:18.279Z,99581.38
2023-03-05T23:12:23.524Z,99583.94
2023-03-05T23:14:25.400Z,99586.66
2023-03-05T23:16:27.304Z,99582.41
2023-03-05T23:18:30.279Z,99585.00
2023-03-05T23:20:36.542Z,99583.19
2023-03-05T23:22:39.778Z,99584.75
2023-03-05T23:24:41.955Z,99581.34
2023-03-05T23:26:43.990Z,99581.56
2023-03-05T23:28:46.003Z,99588.22
2023-03-05T23:30:49.091Z,99574.00
2023-03-05T23:32:56.657Z,99577.38
2023-03-05T23:34:59.660Z,99582.19
2023-03-05T23:37:05.536Z,99573.19
2023-03-05T23:39:07.543Z,99582.06
2023-03-05T23:41:15.200Z,99573.88
2023-03-05T23:43:19.039Z,99572.16
2023-03-05T23:45:25.231Z,99571.81
2023-03-05T23:47:27.138Z,99569.13
2023-03-05T23:49:29.140Z,99569.94
2023-03-05T23:51:32.112Z,99574.28
2023-03-05T23:53:35.515Z,99583.25
2023-03-05T23:55:44.029Z,99578.13
2023-03-05T23:57:54.488Z,99573.44
2023-03-05T23:59:56.748Z,99570.34
